sensor_id;sensor_type;location;lat;lon;timestamp;pressure;altitude;pressure_sealevel;temperature;humidity
80308;BME280;69616;43.522;1.348;2024-02-14T00:02:00;100723.31;;;8.24;70.14
80308;BME280;69616;43.522;1.348;2024-02-14T00:04:25;100732.06;;;8.22;69.99
80308;BME280;69616;43.522;1.348;2024-02-14T00:06:50;100724.97;;;8.17;69.90
80308;BME280;69616;43.522;1.348;2024-02-14T00:09:16;100731.06;;;8.13;69.95
80308;BME280;69616;43.522;1.348;2024-02-14T00:11:41;100731.88;;;8.09;70.36
80308;BME280;69616;43.522;1.348;2024-02-14T00:14:06;100731.00;;;8.09;69.95
80308;BME280;69616;43.522;1.348;2024-02-14T00:16:32;100738.00;;;8.10;70.44
80308;BME280;69616;43.522;1.348;2024-02-14T00:18:57;100740.59;;;8.08;70.25
80308;BME280;69616;43.522;1.348;2024-02-14T00:21:23;100748.44;;;8.07;70.17
80308;BME280;69616;43.522;1.348;2024-02-14T00:23:51;100751.91;;;8.05;70.35
80308;BME280;69616;43.522;1.348;2024-02-14T00:26:17;100751.03;;;8.03;70.25
80308;BME280;69616;43.522;1.348;2024-02-14T00:28:42;100747.50;;;8.01;70.20
80308;BME280;69616;43.522;1.348;2024-02-14T00:31:08;100751.88;;;8.02;70.23
80308;BME280;69616;43.522;1.348;2024-02-14T00:33:33;100757.13;;;8.02;70.32
80308;BME280;69616;43.522;1.348;2024-02-14T00:35:58;100760.66;;;8.04;70.19
80308;BME280;69616;43.522;1.348;2024-02-14T00:38:24;100766.75;;;8.02;70.40
80308;BME280;69616;43.522;1.348;2024-02-14T00:40:49;100765.00;;;8.02;70.46
80308;BME280;69616;43.522;1.348;2024-02-14T00:43:15;100764.09;;;8.00;70.52
80308;BME280;69616;43.522;1.348;2024-02-14T00:45:40;100750.13;;;8.00;70.42
80308;BME280;69616;43.522;1.348;2024-02-14T00:48:06;100734.34;;;7.98;70.44
80308;BME280;69616;43.522;1.348;2024-02-14T00:50:32;100737.81;;;7.97;70.55
80308;BME280;69616;43.522;1.348;2024-02-14T00:52:59;100747.41;;;7.95;70.49
80308;BME280;69616;43.522;1.348;2024-02-14T00:55:24;100748.28;;;7.94;70.70
80308;BME280;69616;43.522;1.348;2024-02-14T00:57:49;100739.50;;;7.92;70.59
80308;BME280;69616;43.522;1.348;2024-02-14T01:00:15;100740.34;;;7.89;70.60
80308;BME280;69616;43.522;1.348;2024-02-14T01:02:42;100730.66;;;7.84;70.68
80308;BME280;69616;43.522;1.348;2024-02-14T01:05:08;100734.97;;;7.82;70.39
80308;BME280;69616;43.522;1.348;2024-02-14T01:07:34;100735.78;;;7.78;70.66
80308;BME280;69616;43.522;1.348;2024-02-14T01:10:00;100747.13;;;7.75;70.54
80308;BME280;69616;43.522;1.348;2024-02-14T01:12:25;100746.19;;;7.71;70.73
80308;BME280;69616;43.522;1.348;2024-02-14T01:14:51;100736.56;;;7.70;70.83
80308;BME280;69616;43.522;1.348;2024-02-14T01:17:16;100736.53;;;7.67;71.02
80308;BME280;69616;43.522;1.348;2024-02-14T01:19:42;100740.88;;;7.67;70.74
80308;BME280;69616;43.522;1.348;2024-02-14T01:22:09;100733.84;;;7.64;70.69
80308;BME280;69616;43.522;1.348;2024-02-14T01:24:34;100727.72;;;7.64;70.70
80308;BME280;69616;43.522;1.348;2024-02-14T01:27:00;100740.81;;;7.62;70.66
80308;BME280;69616;43.522;1.348;2024-02-14T01:29:25;100735.50;;;7.57;70.50
80308;BME280;69616;43.522;1.348;2024-02-14T01:31:51;100733.69;;;7.55;70.87
80308;BME280;69616;43.522;1.348;2024-02-14T01:34:16;100732.78;;;7.51;70.95
80308;BME280;69616;43.522;1.348;2024-02-14T01:36:42;100722.25;;;7.50;70.48
80308;BME280;69616;43.522;1.348;2024-02-14T01:39:07;100723.13;;;7.49;70.60
80308;BME280;69616;43.522;1.348;2024-02-14T01:41:45;100716.06;;;7.44;70.64
80308;BME280;69616;43.522;1.348;2024-02-14T01:44:11;100715.16;;;7.42;70.56
80308;BME280;69616;43.522;1.348;2024-02-14T01:46:37;100715.13;;;7.41;71.25
80308;BME280;69616;43.522;1.348;2024-02-14T01:49:02;100714.28;;;7.40;71.34
80308;BME280;69616;43.522;1.348;2024-02-14T01:51:29;100717.75;;;7.39;71.38
80308;BME280;69616;43.522;1.348;2024-02-14T01:53:55;100724.72;;;7.39;71.26
80308;BME280;69616;43.522;1.348;2024-02-14T01:56:21;100724.75;;;7.40;71.36
80308;BME280;69616;43.522;1.348;2024-02-14T01:58:47;100728.28;;;7.42;71.20
80308;BME280;69616;43.522;1.348;2024-02-14T02:01:12;100726.50;;;7.41;71.46
80308;BME280;69616;43.522;1.348;2024-02-14T02:03:38;100723.03;;;7.42;71.34
80308;BME280;69616;43.522;1.348;2024-02-14T02:06:05;100730.03;;;7.43;71.18
80308;BME280;69616;43.522;1.348;2024-02-14T02:08:31;100729.13;;;7.43;71.24
80308;BME280;69616;43.522;1.348;2024-02-14T02:10:57;100730.03;;;7.43;71.31
80308;BME280;69616;43.522;1.348;2024-02-14T02:13:23;100732.66;;;7.43;71.32
80308;BME280;69616;43.522;1.348;2024-02-14T02:15:48;100736.09;;;7.39;71.85
80308;BME280;69616;43.522;1.348;2024-02-14T02:18:14;100733.34;;;7.33;71.87
80308;BME280;69616;43.522;1.348;2024-02-14T02:20:40;100731.53;;;7.29;72.32
80308;BME280;69616;43.522;1.348;2024-02-14T02:23:09;100726.16;;;7.20;72.49
80308;BME280;69616;43.522;1.348;2024-02-14T02:25:34;100720.81;;;7.13;73.23
80308;BME280;69616;43.522;1.348;2024-02-14T02:28:00;100704.91;;;7.04;73.58
80308;BME280;69616;43.522;1.348;2024-02-14T02:30:25;100708.38;;;7.03;73.18
80308;BME280;69616;43.522;1.348;2024-02-14T02:32:51;100704.91;;;7.04;73.23
80308;BME280;69616;43.522;1.348;2024-02-14T02:35:17;100708.50;;;7.09;73.39
80308;BME280;69616;43.522;1.348;2024-02-14T02:37:45;100713.72;;;7.09;72.73
80308;BME280;69616;43.522;1.348;2024-02-14T02:40:11;100710.25;;;7.10;73.27
80308;BME280;69616;43.522;1.348;2024-02-14T02:42:38;100708.56;;;7.12;72.92
80308;BME280;69616;43.522;1.348;2024-02-14T02:45:03;100700.72;;;7.12;73.28
80308;BME280;69616;43.522;1.348;2024-02-14T02:47:31;100705.06;;;7.12;73.11
80308;BME280;69616;43.522;1.348;2024-02-14T02:49:57;100703.25;;;7.09;72.75
80308;BME280;69616;43.522;1.348;2024-02-14T02:52:25;100706.72;;;7.08;72.98
80308;BME280;69616;43.522;1.348;2024-02-14T02:54:50;100696.25;;;7.08;72.66
80308;BME280;69616;43.522;1.348;2024-02-14T02:57:15;100696.25;;;7.08;72.53
80308;BME280;69616;43.522;1.348;2024-02-14T02:59:41;100692.72;;;7.06;72.68
80308;BME280;69616;43.522;1.348;2024-02-14T03:02:08;100701.38;;;7.02;72.75
80308;BME280;69616;43.522;1.348;2024-02-14T03:04:37;100706.56;;;6.99;72.91
80308;BME280;69616;43.522;1.348;2024-02-14T03:07:03;100702.19;;;6.98;72.90
80308;BME280;69616;43.522;1.348;2024-02-14T03:09:32;100695.22;;;6.98;73.03
80308;BME280;69616;43.522;1.348;2024-02-14T03:11:57;100685.63;;;6.99;73.41
80308;BME280;69616;43.522;1.348;2024-02-14T03:14:23;100690.00;;;7.00;72.82
80308;BME280;69616;43.522;1.348;2024-02-14T03:16:48;100685.63;;;6.99;72.54
80308;BME280;69616;43.522;1.348;2024-02-14T03:19:14;100693.44;;;6.97;73.33
80308;BME280;69616;43.522;1.348;2024-02-14T03:21:39;100688.19;;;6.96;72.81
80308;BME280;69616;43.522;1.348;2024-02-14T03:24:05;100684.69;;;6.94;72.91
80308;BME280;69616;43.522;1.348;2024-02-14T03:26:33;100682.88;;;6.91;73.37
80308;BME280;69616;43.522;1.348;2024-02-14T03:29:03;100680.25;;;6.89;72.86
80308;BME280;69616;43.522;1.348;2024-02-14T03:31:31;100686.28;;;6.87;73.29
80308;BME280;69616;43.522;1.348;2024-02-14T03:33:57;100689.72;;;6.83;73.12
80308;BME280;69616;43.522;1.348;2024-02-14T03:36:22;100686.16;;;6.79;73.28
80308;BME280;69616;43.522;1.348;2024-02-14T03:38:49;100687.84;;;6.77;73.42
80308;BME280;69616;43.522;1.348;2024-02-14T03:41:15;100679.06;;;6.73;73.11
80308;BME280;69616;43.522;1.348;2024-02-14T03:43:40;100675.53;;;6.71;73.43
80308;BME280;69616;43.522;1.348;2024-02-14T03:46:06;100678.97;;;6.67;73.42
80308;BME280;69616;43.522;1.348;2024-02-14T03:48:31;100688.56;;;6.67;73.21
80308;BME280;69616;43.522;1.348;2024-02-14T03:50:57;100684.09;;;6.61;73.26
80308;BME280;69616;43.522;1.348;2024-02-14T03:53:23;100691.88;;;6.59;73.04
80308;BME280;69616;43.522;1.348;2024-02-14T03:55:49;100700.59;;;6.58;72.89
80308;BME280;69616;43.522;1.348;2024-02-14T03:58:14;100700.59;;;6.57;73.05
80308;BME280;69616;43.522;1.348;2024-02-14T04:00:42;100704.06;;;6.57;72.54
80308;BME280;69616;43.522;1.348;2024-02-14T04:03:12;100692.69;;;6.54;73.27
80308;BME280;69616;43.522;1.348;2024-02-14T04:05:37;100697.81;;;6.51;72.93
80308;BME280;69616;43.522;1.348;2024-02-14T04:08:03;100697.81;;;6.49;73.27
80308;BME280;69616;43.522;1.348;2024-02-14T04:10:28;100689.91;;;6.46;72.98
80308;BME280;69616;43.522;1.348;2024-02-14T04:12:54;100693.38;;;6.45;72.47
80308;BME280;69616;43.522;1.348;2024-02-14T04:15:20;100684.56;;;6.41;72.76
80308;BME280;69616;43.522;1.348;2024-02-14T04:17:45;100688.84;;;6.36;72.41
80308;BME280;69616;43.522;1.348;2024-02-14T04:20:10;100678.31;;;6.33;72.88
80308;BME280;69616;43.522;1.348;2024-02-14T04:22:36;100686.06;;;6.28;72.47
80308;BME280;69616;43.522;1.348;2024-02-14T04:25:03;100690.31;;;6.23;73.49
80308;BME280;69616;43.522;1.348;2024-02-14T04:27:29;100689.41;;;6.21;72.97
80308;BME280;69616;43.522;1.348;2024-02-14T04:29:54;100686.75;;;6.20;73.24
80308;BME280;69616;43.522;1.348;2024-02-14T04:32:20;100686.75;;;6.20;73.21
80308;BME280;69616;43.522;1.348;2024-02-14T04:34:45;100687.59;;;6.17;73.19
80308;BME280;69616;43.522;1.348;2024-02-14T04:37:10;100693.72;;;6.19;73.00
80308;BME280;69616;43.522;1.348;2024-02-14T04:39:39;100690.22;;;6.18;72.44
80308;BME280;69616;43.522;1.348;2024-02-14T04:42:04;100691.06;;;6.16;72.70
80308;BME280;69616;43.522;1.348;2024-02-14T04:44:31;100693.56;;;6.13;73.34
80308;BME280;69616;43.522;1.348;2024-02-14T04:46:57;100696.19;;;6.11;73.20
80308;BME280;69616;43.522;1.348;2024-02-14T04:49:24;100699.66;;;6.12;73.26
80308;BME280;69616;43.522;1.348;2024-02-14T04:51:51;100708.34;;;6.11;73.66
80308;BME280;69616;43.522;1.348;2024-02-14T04:54:16;100704.88;;;6.10;73.21
80308;BME280;69616;43.522;1.348;2024-02-14T04:56:42;100710.94;;;6.09;73.39
80308;BME280;69616;43.522;1.348;2024-02-14T04:59:08;100704.81;;;6.09;72.85
80308;BME280;69616;43.522;1.348;2024-02-14T05:01:34;100706.53;;;6.07;73.03
80308;BME280;69616;43.522;1.348;2024-02-14T05:04:00;100702.16;;;6.06;72.47
80308;BME280;69616;43.522;1.348;2024-02-14T05:06:25;100703.84;;;6.03;73.69
80308;BME280;69616;43.522;1.348;2024-02-14T05:08:51;100698.53;;;6.00;72.70
80308;BME280;69616;43.522;1.348;2024-02-14T05:11:17;100697.63;;;5.98;72.45
80308;BME280;69616;43.522;1.348;2024-02-14T05:13:43;100694.09;;;5.96;72.74
80308;BME280;69616;43.522;1.348;2024-02-14T05:16:09;100701.88;;;5.95;72.80
80308;BME280;69616;43.522;1.348;2024-02-14T05:18:37;100707.13;;;5.95;73.13
80308;BME280;69616;43.522;1.348;2024-02-14T05:21:05;100704.47;;;5.93;73.08
80308;BME280;69616;43.522;1.348;2024-02-14T05:23:31;100699.16;;;5.90;72.54
80308;BME280;69616;43.522;1.348;2024-02-14T05:25:56;100714.78;;;5.87;72.76
80308;BME280;69616;43.522;1.348;2024-02-14T05:28:22;100707.78;;;5.86;72.75
80308;BME280;69616;43.522;1.348;2024-02-14T05:30:50;100709.47;;;5.84;72.95
80308;BME280;69616;43.522;1.348;2024-02-14T05:33:16;100712.88;;;5.80;72.74
80308;BME280;69616;43.522;1.348;2024-02-14T05:35:43;100715.44;;;5.77;72.71
80308;BME280;69616;43.522;1.348;2024-02-14T05:38:09;100710.13;;;5.73;73.33
80308;BME280;69616;43.522;1.348;2024-02-14T05:40:34;100712.69;;;5.70;72.74
80308;BME280;69616;43.522;1.348;2024-02-14T05:43:03;100707.38;;;5.67;73.14
80308;BME280;69616;43.522;1.348;2024-02-14T05:45:28;100703.81;;;5.65;72.76
80308;BME280;69616;43.522;1.348;2024-02-14T05:47:54;100703.81;;;5.65;73.48
80308;BME280;69616;43.522;1.348;2024-02-14T05:50:19;100709.88;;;5.63;73.11
80308;BME280;69616;43.522;1.348;2024-02-14T05:52:45;100706.31;;;5.59;73.45
80308;BME280;69616;43.522;1.348;2024-02-14T05:55:10;100703.63;;;5.56;73.61
80308;BME280;69616;43.522;1.348;2024-02-14T05:57:35;100698.25;;;5.50;72.65
80308;BME280;69616;43.522;1.348;2024-02-14T06:00:01;100698.94;;;5.42;73.63
80308;BME280;69616;43.522;1.348;2024-02-14T06:02:27;100687.56;;;5.39;73.02
80308;BME280;69616;43.522;1.348;2024-02-14T06:04:53;100693.66;;;5.39;73.35
80308;BME280;69616;43.522;1.348;2024-02-14T06:07:18;100700.63;;;5.39;73.61
80308;BME280;69616;43.522;1.348;2024-02-14T06:09:44;100710.16;;;5.38;72.97
80308;BME280;69616;43.522;1.348;2024-02-14T06:12:10;100710.09;;;5.35;73.04
80308;BME280;69616;43.522;1.348;2024-02-14T06:14:36;100723.13;;;5.34;73.08
80308;BME280;69616;43.522;1.348;2024-02-14T06:17:01;100724.84;;;5.31;73.27
80308;BME280;69616;43.522;1.348;2024-02-14T06:19:27;100732.66;;;5.31;73.30
80308;BME280;69616;43.522;1.348;2024-02-14T06:21:53;100734.38;;;5.31;72.68
80308;BME280;69616;43.522;1.348;2024-02-14T06:24:18;100737.84;;;5.30;73.72
80308;BME280;69616;43.522;1.348;2024-02-14T06:26:45;100744.81;;;5.31;73.56
80308;BME280;69616;43.522;1.348;2024-02-14T06:29:10;100743.06;;;5.30;72.97
80308;BME280;69616;43.522;1.348;2024-02-14T06:31:36;100740.31;;;5.25;73.30
80308;BME280;69616;43.522;1.348;2024-02-14T06:34:01;100749.75;;;5.19;73.11
80308;BME280;69616;43.522;1.348;2024-02-14T06:36:27;100753.16;;;5.17;73.24
80308;BME280;69616;43.522;1.348;2024-02-14T06:38:52;100747.88;;;5.14;73.40
80308;BME280;69616;43.522;1.348;2024-02-14T06:41:18;100749.56;;;5.12;73.15
80308;BME280;69616;43.522;1.348;2024-02-14T06:43:45;100744.34;;;5.12;73.22
80308;BME280;69616;43.522;1.348;2024-02-14T06:46:10;100751.25;;;5.10;73.00
80308;BME280;69616;43.522;1.348;2024-02-14T06:48:36;100747.78;;;5.10;73.36
80308;BME280;69616;43.522;1.348;2024-02-14T06:51:01;100754.72;;;5.09;73.22
80308;BME280;69616;43.522;1.348;2024-02-14T06:53:27;100756.41;;;5.07;73.18
80308;BME280;69616;43.522;1.348;2024-02-14T06:55:52;100765.06;;;5.06;72.86
80308;BME280;69616;43.522;1.348;2024-02-14T06:58:17;100766.75;;;5.04;73.06
80308;BME280;69616;43.522;1.348;2024-02-14T07:00:43;100766.69;;;5.01;72.74
80308;BME280;69616;43.522;1.348;2024-02-14T07:03:09;100769.25;;;4.99;73.52
80308;BME280;69616;43.522;1.348;2024-02-14T07:05:35;100764.84;;;4.97;73.02
80308;BME280;69616;43.522;1.348;2024-02-14T07:08:00;100770.94;;;4.97;73.44
80308;BME280;69616;43.522;1.348;2024-02-14T07:10:26;100769.22;;;4.98;73.13
80308;BME280;69616;43.522;1.348;2024-02-14T07:12:52;100766.59;;;4.98;73.54
80308;BME280;69616;43.522;1.348;2024-02-14T07:15:17;100771.81;;;4.98;73.37
80308;BME280;69616;43.522;1.348;2024-02-14T07:17:43;100772.75;;;5.00;73.89
80308;BME280;69616;43.522;1.348;2024-02-14T07:20:08;100780.59;;;5.01;73.20
80308;BME280;69616;43.522;1.348;2024-02-14T07:22:35;100778.91;;;5.02;72.98
80308;BME280;69616;43.522;1.348;2024-02-14T07:25:01;100789.41;;;5.05;73.38
80308;BME280;69616;43.522;1.348;2024-02-14T07:27:26;100789.41;;;5.05;73.10
80308;BME280;69616;43.522;1.348;2024-02-14T07:29:52;100782.50;;;5.07;73.32
80308;BME280;69616;43.522;1.348;2024-02-14T07:32:18;100783.25;;;5.03;73.50
80308;BME280;69616;43.522;1.348;2024-02-14T07:34:43;100789.19;;;4.97;73.70
80308;BME280;69616;43.522;1.348;2024-02-14T07:37:09;100790.03;;;4.96;73.85
80308;BME280;69616;43.522;1.348;2024-02-14T07:39:34;100785.81;;;5.00;74.08
80308;BME280;69616;43.522;1.348;2024-02-14T07:42:03;100790.28;;;5.06;73.75
80308;BME280;69616;43.522;1.348;2024-02-14T07:44:29;100784.34;;;5.11;74.17
80308;BME280;69616;43.522;1.348;2024-02-14T07:46:54;100800.22;;;5.19;73.78
80308;BME280;69616;43.522;1.348;2024-02-14T07:49:20;100804.72;;;5.25;73.35
80308;BME280;69616;43.522;1.348;2024-02-14T07:51:46;100813.50;;;5.28;74.72
80308;BME280;69616;43.522;1.348;2024-02-14T07:54:11;100820.56;;;5.31;74.76
80308;BME280;69616;43.522;1.348;2024-02-14T07:56:36;100822.41;;;5.35;74.47
80308;BME280;69616;43.522;1.348;2024-02-14T07:59:05;100820.78;;;5.40;75.54
80308;BME280;69616;43.522;1.348;2024-02-14T08:01:31;100822.72;;;5.48;74.56
80308;BME280;69616;43.522;1.348;2024-02-14T08:03:57;100818.53;;;5.54;74.93
80308;BME280;69616;43.522;1.348;2024-02-14T08:06:23;100826.81;;;5.71;75.23
80308;BME280;69616;43.522;1.348;2024-02-14T08:08:49;100816.91;;;5.95;75.35
80308;BME280;69616;43.522;1.348;2024-02-14T08:11:17;100821.09;;;6.23;74.39
80308;BME280;69616;43.522;1.348;2024-02-14T08:13:42;100821.56;;;6.45;74.26
80308;BME280;69616;43.522;1.348;2024-02-14T08:16:08;100816.69;;;6.62;75.18
80308;BME280;69616;43.522;1.348;2024-02-14T08:18:34;100811.91;;;6.85;74.84
80308;BME280;69616;43.522;1.348;2024-02-14T08:21:00;100809.72;;;7.07;74.11
80308;BME280;69616;43.522;1.348;2024-02-14T08:23:26;100810.09;;;7.27;73.99
80308;BME280;69616;43.522;1.348;2024-02-14T08:25:51;100795.59;;;7.46;74.11
80308;BME280;69616;43.522;1.348;2024-02-14T08:28:37;100801.28;;;7.73;73.95
80308;BME280;69616;43.522;1.348;2024-02-14T08:31:04;100794.56;;;7.92;73.41
80308;BME280;69616;43.522;1.348;2024-02-14T08:33:34;100798.31;;;8.08;73.02
80308;BME280;69616;43.522;1.348;2024-02-14T08:36:00;100796.81;;;8.26;73.21
80308;BME280;69616;43.522;1.348;2024-02-14T08:38:27;100789.09;;;8.38;72.75
80308;BME280;69616;43.522;1.348;2024-02-14T08:40:52;100793.53;;;8.42;72.54
80308;BME280;69616;43.522;1.348;2024-02-14T08:43:17;100797.13;;;8.49;72.55
80308;BME280;69616;43.522;1.348;2024-02-14T08:45:43;100801.72;;;8.63;72.66
80308;BME280;69616;43.522;1.348;2024-02-14T08:48:08;100798.34;;;8.76;72.88
80308;BME280;69616;43.522;1.348;2024-02-14T08:50:34;100787.97;;;8.85;72.60
80308;BME280;69616;43.522;1.348;2024-02-14T08:53:00;100788.09;;;8.98;72.43
80308;BME280;69616;43.522;1.348;2024-02-14T08:55:26;100796.09;;;9.09;72.29
80308;BME280;69616;43.522;1.348;2024-02-14T08:57:51;100792.69;;;9.17;72.35
80308;BME280;69616;43.522;1.348;2024-02-14T09:00:17;100785.84;;;9.32;72.06
80308;BME280;69616;43.522;1.348;2024-02-14T09:02:45;100782.47;;;9.47;71.62
80308;BME280;69616;43.522;1.348;2024-02-14T09:05:12;100780.78;;;9.55;71.62
80308;BME280;69616;43.522;1.348;2024-02-14T09:07:38;100786.13;;;9.65;71.40
80308;BME280;69616;43.522;1.348;2024-02-14T09:12:52;100779.31;;;9.96;71.41
80308;BME280;69616;43.522;1.348;2024-02-14T09:15:18;100779.41;;;10.09;70.89
80308;BME280;69616;43.522;1.348;2024-02-14T09:17:45;100771.56;;;10.16;70.53
80308;BME280;69616;43.522;1.348;2024-02-14T09:20:11;100769.91;;;10.32;70.59
80308;BME280;69616;43.522;1.348;2024-02-14T09:23:03;100769.13;;;10.47;69.93
80308;BME280;69616;43.522;1.348;2024-02-14T09:25:29;100763.03;;;10.69;69.10
80308;BME280;69616;43.522;1.348;2024-02-14T09:27:59;100763.06;;;10.76;68.91
80308;BME280;69616;43.522;1.348;2024-02-14T09:30:34;100762.22;;;10.88;68.83
80308;BME280;69616;43.522;1.348;2024-02-14T09:32:59;100767.53;;;10.90;68.73
80308;BME280;69616;43.522;1.348;2024-02-14T09:35:25;100769.28;;;10.94;68.18
80308;BME280;69616;43.522;1.348;2024-02-14T09:37:51;100764.06;;;11.10;68.46
80308;BME280;69616;43.522;1.348;2024-02-14T09:40:16;100757.00;;;11.19;68.22
80308;BME280;69616;43.522;1.348;2024-02-14T09:42:53;100751.78;;;11.32;67.68
80308;BME280;69616;43.522;1.348;2024-02-14T09:45:20;100752.66;;;11.46;67.90
80308;BME280;69616;43.522;1.348;2024-02-14T09:47:45;100744.72;;;11.62;67.85
80308;BME280;69616;43.522;1.348;2024-02-14T09:50:12;100747.34;;;11.76;67.76
80308;BME280;69616;43.522;1.348;2024-02-14T09:52:38;100749.09;;;11.85;67.54
80308;BME280;69616;43.522;1.348;2024-02-14T09:55:05;100756.13;;;11.98;67.39
80308;BME280;69616;43.522;1.348;2024-02-14T09:57:32;100742.97;;;12.06;67.03
80308;BME280;69616;43.522;1.348;2024-02-14T10:00:00;100741.16;;;12.19;66.11
80308;BME280;69616;43.522;1.348;2024-02-14T10:02:26;100738.47;;;12.30;66.80
80308;BME280;69616;43.522;1.348;2024-02-14T10:04:52;100738.44;;;12.44;66.45
80308;BME280;69616;43.522;1.348;2024-02-14T10:07:19;100734.81;;;12.62;66.05
80308;BME280;69616;43.522;1.348;2024-02-14T10:09:44;100732.13;;;12.73;66.10
80308;BME280;69616;43.522;1.348;2024-02-14T10:12:10;100735.47;;;12.98;65.12
80308;BME280;69616;43.522;1.348;2024-02-14T10:14:36;100725.66;;;13.17;64.62
80308;BME280;69616;43.522;1.348;2024-02-14T10:17:03;100720.34;;;13.24;64.49
80308;BME280;69616;43.522;1.348;2024-02-14T10:19:29;100720.22;;;13.36;64.51
80308;BME280;69616;43.522;1.348;2024-02-14T10:22:00;100718.34;;;13.54;64.41
80308;BME280;69616;43.522;1.348;2024-02-14T10:24:28;100726.03;;;13.80;62.94
80308;BME280;69616;43.522;1.348;2024-02-14T10:26:54;100716.22;;;13.93;63.58
80308;BME280;69616;43.522;1.348;2024-02-14T10:29:23;100716.06;;;14.05;63.27
80308;BME280;69616;43.522;1.348;2024-02-14T10:31:48;100724.69;;;14.23;63.32
80308;BME280;69616;43.522;1.348;2024-02-14T10:34:14;100728.97;;;14.33;62.88
80308;BME280;69616;43.522;1.348;2024-02-14T10:36:42;100728.03;;;14.41;63.03
80308;BME280;69616;43.522;1.348;2024-02-14T10:39:10;100718.13;;;14.54;62.91
80308;BME280;69616;43.522;1.348;2024-02-14T10:41:36;100718.78;;;14.74;62.77
80308;BME280;69616;43.522;1.348;2024-02-14T10:44:03;100710.41;;;15.01;61.83
80308;BME280;69616;43.522;1.348;2024-02-14T10:46:32;100712.84;;;15.15;61.51
80308;BME280;69616;43.522;1.348;2024-02-14T10:49:04;100719.81;;;15.24;61.51
80308;BME280;69616;43.522;1.348;2024-02-14T10:51:34;100717.16;;;15.24;61.17
80308;BME280;69616;43.522;1.348;2024-02-14T10:54:08;100710.75;;;15.35;60.33
80308;BME280;69616;43.522;1.348;2024-02-14T10:56:41;100712.16;;;15.58;60.10
80308;BME280;69616;43.522;1.348;2024-02-14T10:59:09;100709.44;;;15.61;60.48
80308;BME280;69616;43.522;1.348;2024-02-14T11:01:37;100712.69;;;15.77;60.80
80308;BME280;69616;43.522;1.348;2024-02-14T11:04:03;100711.47;;;15.97;60.06
80308;BME280;69616;43.522;1.348;2024-02-14T11:06:32;100699.78;;;16.06;59.72
80308;BME280;69616;43.522;1.348;2024-02-14T11:09:02;100689.88;;;16.14;59.94
80308;BME280;69616;43.522;1.348;2024-02-14T11:11:35;100697.44;;;16.34;59.79
80308;BME280;69616;43.522;1.348;2024-02-14T11:14:02;100694.28;;;16.58;59.35
80308;BME280;69616;43.522;1.348;2024-02-14T11:16:30;100694.75;;;16.77;59.68
80308;BME280;69616;43.522;1.348;2024-02-14T11:19:09;100687.22;;;16.96;59.07
80308;BME280;69616;43.522;1.348;2024-02-14T11:21:41;100672.44;;;17.20;58.61
80308;BME280;69616;43.522;1.348;2024-02-14T11:24:14;100670.44;;;17.30;58.47
80308;BME280;69616;43.522;1.348;2024-02-14T11:26:50;100671.91;;;17.42;57.21
80308;BME280;69616;43.522;1.348;2024-02-14T11:29:19;100667.19;;;17.54;57.57
80308;BME280;69616;43.522;1.348;2024-02-14T11:31:45;100658.03;;;17.64;57.56
80308;BME280;69616;43.522;1.348;2024-02-14T11:34:12;100652.28;;;17.79;57.34
80308;BME280;69616;43.522;1.348;2024-02-14T11:36:39;100653.09;;;17.82;57.03
80308;BME280;69616;43.522;1.348;2024-02-14T11:39:06;100646.69;;;17.89;57.22
80308;BME280;69616;43.522;1.348;2024-02-14T11:41:33;100644.34;;;18.10;56.67
80308;BME280;69616;43.522;1.348;2024-02-14T11:44:03;100647.59;;;18.21;56.71
80308;BME280;69616;43.522;1.348;2024-02-14T11:46:35;100647.09;;;18.36;55.54
80308;BME280;69616;43.522;1.348;2024-02-14T11:49:02;100637.81;;;18.50;55.38
80308;BME280;69616;43.522;1.348;2024-02-14T11:51:29;100630.41;;;18.60;55.53
80308;BME280;69616;43.522;1.348;2024-02-14T11:53:58;100620.22;;;18.73;55.26
80308;BME280;69616;43.522;1.348;2024-02-14T11:56:36;100618.66;;;18.92;55.30
80308;BME280;69616;43.522;1.348;2024-02-14T11:59:02;100611.00;;;19.10;55.37
80308;BME280;69616;43.522;1.348;2024-02-14T12:01:31;100605.91;;;19.29;54.88
80308;BME280;69616;43.522;1.348;2024-02-14T12:03:59;100606.84;;;19.54;54.55
80308;BME280;69616;43.522;1.348;2024-02-14T12:06:29;100605.22;;;19.73;55.16
80308;BME280;69616;43.522;1.348;2024-02-14T12:08:57;100605.13;;;19.76;53.92
80308;BME280;69616;43.522;1.348;2024-02-14T12:11:27;100595.72;;;19.90;54.01
80308;BME280;69616;43.522;1.348;2024-02-14T12:13:53;100589.13;;;20.00;53.91
80308;BME280;69616;43.522;1.348;2024-02-14T12:16:21;100588.72;;;20.11;53.63
80308;BME280;69616;43.522;1.348;2024-02-14T12:18:47;100573.19;;;20.21;52.74
80308;BME280;69616;43.522;1.348;2024-02-14T12:21:13;100573.22;;;20.19;52.18
80308;BME280;69616;43.522;1.348;2024-02-14T12:23:38;100569.09;;;20.11;52.60
80308;BME280;69616;43.522;1.348;2024-02-14T12:26:04;100570.63;;;20.18;52.04
80308;BME280;69616;43.522;1.348;2024-02-14T12:28:30;100565.09;;;20.22;51.94
80308;BME280;69616;43.522;1.348;2024-02-14T12:30:57;100551.16;;;20.36;52.17
80308;BME280;69616;43.522;1.348;2024-02-14T12:33:26;100555.03;;;20.51;50.77
80308;BME280;69616;43.522;1.348;2024-02-14T12:35:56;100538.72;;;20.58;50.27
80308;BME280;69616;43.522;1.348;2024-02-14T12:38:22;100540.94;;;20.69;50.75
80308;BME280;69616;43.522;1.348;2024-02-14T12:40:48;100535.72;;;20.88;50.00
80308;BME280;69616;43.522;1.348;2024-02-14T12:43:15;100533.91;;;20.88;49.74
80308;BME280;69616;43.522;1.348;2024-02-14T12:45:42;100522.47;;;20.85;50.29
80308;BME280;69616;43.522;1.348;2024-02-14T12:48:08;100517.78;;;20.90;49.88
80308;BME280;69616;43.522;1.348;2024-02-14T12:50:35;100515.41;;;20.82;50.17
80308;BME280;69616;43.522;1.348;2024-02-14T12:53:01;100516.78;;;20.92;49.75
80308;BME280;69616;43.522;1.348;2024-02-14T12:55:27;100512.63;;;21.06;49.38
80308;BME280;69616;43.522;1.348;2024-02-14T12:57:54;100518.09;;;21.03;49.42